| Date | Time | Temp. (oF) | Dew Point (oF) | Rel. Hum. (%) | Press. (in.) | Wind Dir. | Wind Speed (mph) | Hourly Rainfall (in.) |
|
|---|---|---|---|---|---|---|---|---|---|
| 1 | 02/13 | 00:00 | 28 | 27 | 100 | 29.96 | NNW | 3 | 0.00 |
| 2 | 02/12 | 23:00 | 27 | 27 | 100 | 29.99 | NNE | 6 | 0.02 |
| 3 | 02/12 | 22:00 | 26 | 26 | 100 | 30.04 | ENE | 5 | 0.03 |
| 4 | 02/12 | 21:00 | 25 | 24 | 100 | 30.10 | ENE | 3 | 0.00 |
| 5 | 02/12 | 20:00 | 24 | 23 | 99 | 30.12 | ENE | 5 | 0.00 |
| 6 | 02/12 | 19:00 | 23 | 22 | 97 | 30.16 | E | 2 | 0.05 |
| 7 | 02/12 | 18:00 | 22 | 20 | 95 | 30.18 | E | 5 | 0.02 |
| 8 | 02/12 | 17:00 | 22 | 20 | 93 | 30.21 | E | 5 | 0.02 |
| 9 | 02/12 | 16:00 | 24 | 18 | 79 | 30.24 | SE | 1 | 0.00 |
| 10 | 02/12 | 15:00 | 24 | 19 | 83 | 30.25 | SSE | 6 | 0.00 |
| 11 | 02/12 | 14:00 | 22 | 19 | 89 | 30.29 | S | 2 | 0.00 |
| 12 | 02/12 | 13:00 | 21 | 17 | 86 | 30.31 | SE | 5 | 0.00 |
| 13 | 02/12 | 12:00 | 20 | 16 | 85 | 30.35 | SE | 6 | 0.00 |
| 14 | 02/12 | 11:00 | 21 | 12 | 69 | 30.40 | NE | 4 | 0.00 |
| 15 | 02/12 | 10:00 | 19 | 11 | 71 | 30.41 | ESE | 2 | 0.00 |
| 16 | 02/12 | 09:00 | 18 | 11 | 75 | 30.44 | ESE | 4 | 0.00 |
| 17 | 02/12 | 08:00 | 17 | 10 | 75 | 30.45 | E | 3 | 0.00 |
| 18 | 02/12 | 07:00 | 16 | 10 | 77 | 30.44 | ENE | 3 | 0.00 |
| 19 | 02/12 | 06:00 | 15 | 9 | 77 | 30.44 | NE | 1 | 0.00 |
| 20 | 02/12 | 05:00 | 16 | 8 | 73 | 30.42 | N | 4 | 0.00 |
| 21 | 02/12 | 04:00 | 16 | 8 | 72 | 30.42 | NNE | 4 | 0.00 |
| 22 | 02/12 | 03:00 | 18 | 3 | 53 | 30.42 | WNW | 6 | 0.00 |
| 23 | 02/12 | 02:00 | 18 | 2 | 51 | 30.42 | NNW | 3 | 0.00 |
| 24 | 02/12 | 01:00 | 17 | 2 | 52 | 30.42 | NW | 4 | 0.00 |